Time;durP1;ratioP1;P1;durP2;ratioP2;P2;SDS_P1;SDS_P2;PMS_P1;PMS_P2;Temp;Humidity;BMP_temperature;BMP_pressure;BME280_temperature;BME280_humidity;BME280_pressure;Samples;Min_cycle;Max_cycle;Signal;HPM_P1;HPM_P2
2023/02/11 00:01:53;;;;;;;150.48;82.13;;;;;;;-9.91;100.00;103192.41;5034992;28;20056;-78
2023/02/11 00:04:20;;;;;;;139.98;74.40;;;;;;;-10.16;100.00;103202.06;5031683;28;20058;-78
2023/02/11 00:06:47;;;;;;;107.93;64.53;;;;;;;-9.98;100.00;103198.47;5029198;28;20049;-78
2023/02/11 00:09:13;;;;;;;104.68;58.78;;;;;;;-9.86;100.00;103202.63;5028373;28;20400;-78
2023/02/11 00:11:42;;;;;;;113.95;67.07;;;;;;;-10.16;100.00;103202.06;5032052;28;20049;-78
2023/02/11 00:14:10;;;;;;;112.05;61.38;;;;;;;-10.40;100.00;103200.53;5030316;28;20049;-78
2023/02/11 00:16:37;;;;;;;135.18;74.50;;;;;;;-10.62;100.00;103199.81;5031596;28;20045;-78
2023/02/11 00:19:05;;;;;;;95.60;55.30;;;;;;;-10.81;100.00;103191.34;5036779;28;20080;-78
2023/02/11 00:21:33;;;;;;;91.85;55.17;;;;;;;-10.81;100.00;103191.34;5032710;28;20176;-78
2023/02/11 00:24:01;;;;;;;89.25;52.90;;;;;;;-10.74;100.00;103187.91;5034651;28;20053;-78
2023/02/11 00:26:29;;;;;;;86.53;53.47;;;;;;;-10.68;100.00;103199.84;5033904;28;20511;-78
2023/02/11 00:28:58;;;;;;;93.05;57.72;;;;;;;-10.58;100.00;103200.66;5026046;28;20054;-78
2023/02/11 00:31:25;;;;;;;91.80;53.40;;;;;;;-10.55;100.00;103193.78;5039837;28;20499;-78
2023/02/11 00:33:52;;;;;;;92.82;55.85;;;;;;;-10.62;100.00;103197.22;5033678;28;20050;-78
2023/02/11 00:36:21;;;;;;;101.65;59.30;;;;;;;-10.75;100.00;103182.78;5034136;28;20049;-78
2023/02/11 00:38:49;;;;;;;85.07;53.85;;;;;;;-10.79;100.00;103183.66;5034555;28;20107;-78
2023/02/11 00:41:17;;;;;;;79.63;53.13;;;;;;;-10.75;100.00;103181.03;5040737;28;20084;-79
2023/02/11 00:43:44;;;;;;;86.35;55.58;;;;;;;-10.80;100.00;103179.38;5037540;28;20557;-78
2023/02/11 00:46:13;;;;;;;97.43;65.28;;;;;;;-10.92;100.00;103173.47;5039585;28;20052;-78
2023/02/11 00:48:40;;;;;;;76.72;54.10;;;;;;;-10.91;100.00;103167.44;5034919;28;20499;-78
2023/02/11 00:51:07;;;;;;;64.07;47.08;;;;;;;-11.09;100.00;103157.28;5035156;28;20531;-78
2023/02/11 00:53:35;;;;;;;68.35;46.42;;;;;;;-10.92;100.00;103160.63;5036867;28;20054;-78
2023/02/11 00:56:02;;;;;;;74.97;51.53;;;;;;;-10.31;100.00;103167.06;5034703;28;20112;-78
2023/02/11 00:58:29;;;;;;;98.68;57.40;;;;;;;-10.14;100.00;103166.88;5039401;28;20220;-79
2023/02/11 01:00:56;;;;;;;95.53;58.13;;;;;;;-10.34;100.00;103161.97;5023825;28;20132;-78
2023/02/11 01:03:24;;;;;;;100.57;53.40;;;;;;;-10.53;100.00;103160.38;5028680;28;20050;-78
2023/02/11 01:05:51;;;;;;;108.28;60.00;;;;;;;-10.46;100.00;103162.91;5030731;28;20106;-78
2023/02/11 01:08:18;;;;;;;104.70;59.25;;;;;;;-10.04;100.00;103173.69;5034920;28;20057;-78
2023/02/11 01:10:45;;;;;;;109.35;64.22;;;;;;;-10.35;100.00;103173.06;5029351;28;20455;-78
2023/02/11 01:13:12;;;;;;;106.15;60.10;;;;;;;-10.31;100.00;103171.38;5033759;28;20049;-78
2023/02/11 01:15:38;;;;;;;104.40;60.35;;;;;;;-10.30;100.00;103173.91;5034034;28;20041;-78
2023/02/11 01:18:05;;;;;;;116.00;59.80;;;;;;;-10.53;100.00;103163.78;5031874;28;20046;-78
2023/02/11 01:20:33;;;;;;;113.43;58.60;;;;;;;-10.47;100.00;103165.47;5030336;28;20041;-78
2023/02/11 01:23:00;;;;;;;126.28;64.88;;;;;;;-10.56;100.00;103171.50;5030689;28;20053;-78
2023/02/11 01:25:27;;;;;;;157.70;67.97;;;;;;;-10.82;100.00;103169.13;5033458;28;20444;-78
2023/02/11 01:27:54;;;;;;;210.63;100.30;;;;;;;-10.97;100.00;103162.34;5029440;28;20053;-78
2023/02/11 01:30:20;;;;;;;253.93;113.55;;;;;;;-10.94;100.00;103161.47;5035205;28;20412;-78
2023/02/11 01:32:47;;;;;;;170.35;86.45;;;;;;;-10.89;100.00;103170.88;5035069;28;20131;-78
2023/02/11 01:35:14;;;;;;;156.45;84.25;;;;;;;-10.72;100.00;103170.75;5028608;28;20050;-78
2023/02/11 01:37:42;;;;;;;147.82;72.90;;;;;;;-11.00;100.00;103175.19;5034382;28;20049;-78
2023/02/11 01:40:13;;;;;;;189.73;92.03;;;;;;;-10.64;100.00;103178.44;5029832;28;20176;-78
2023/02/11 01:42:40;;;;;;;198.00;97.70;;;;;;;-10.93;100.00;103170.88;5030736;28;20077;-78
2023/02/11 01:45:40;;;;;;;191.90;90.85;;;;;;;-10.71;100.00;103166.47;5029870;28;20493;-78
2023/02/11 01:48:09;;;;;;;138.95;74.57;;;;;;;-10.65;100.00;103159.59;5030694;28;20115;-78
2023/02/11 01:50:37;;;;;;;143.55;74.72;;;;;;;-10.17;100.00;103170.31;5034546;28;20041;-78
2023/02/11 01:58:38;;;;;;;109.25;64.80;;;;;;;-10.59;100.00;103162.97;5007881;28;20084;-78
2023/02/11 02:01:07;;;;;;;103.72;63.53;;;;;;;-10.59;100.00;103165.53;5034405;28;20042;-78
2023/02/11 02:03:39;;;;;;;112.72;62.63;;;;;;;-10.75;100.00;103163.06;5035907;28;20046;-78
2023/02/11 02:06:10;;;;;;;128.77;73.47;;;;;;;-11.19;100.00;103163.31;5026333;28;20084;-78
2023/02/11 02:08:43;;;;;;;120.47;70.07;;;;;;;-11.15;100.00;103158.16;5022389;28;20157;-78
2023/02/11 02:11:10;;;;;;;121.88;67.07;;;;;;;-11.27;100.00;103154.78;5029512;28;20061;-78
2023/02/11 02:13:37;;;;;;;99.55;63.90;;;;;;;-11.28;100.00;103158.19;5030745;28;20050;-78
2023/02/11 02:16:06;;;;;;;109.57;63.33;;;;;;;-11.27;100.00;103162.50;5037788;28;20131;-78
2023/02/11 02:18:44;;;;;;;101.82;65.47;;;;;;;-11.09;100.00;103160.69;5039253;28;20041;-78
2023/02/11 02:21:52;;;;;;;131.45;76.75;;;;;;;-11.05;100.00;103158.09;5032176;28;20069;-78
2023/02/11 02:24:47;;;;;;;118.63;70.78;;;;;;;-10.95;100.00;103170.03;5000472;28;20053;-78
2023/02/11 02:27:32;;;;;;;95.03;58.40;;;;;;;-11.20;100.00;103167.56;5033209;28;20050;-78
2023/02/11 02:30:44;;;;;;;101.55;60.85;;;;;;;-11.24;100.00;103177.88;5032595;28;20054;-78
2023/02/11 02:33:25;;;;;;;109.55;61.88;;;;;;;-11.19;100.00;103173.59;5007200;28;20522;-78
2023/02/11 02:36:02;;;;;;;109.70;66.80;;;;;;;-11.34;100.00;103159.94;5040931;28;20049;-78
2023/02/11 02:38:34;;;;;;;110.72;75.45;;;;;;;-11.34;100.00;103159.94;5035177;28;20041;-78
2023/02/11 02:41:06;;;;;;;96.28;67.85;;;;;;;-11.52;100.00;103165.13;5029100;28;20057;-78
2023/02/11 02:43:34;;;;;;;86.95;57.97;;;;;;;-11.63;100.00;103161.75;5027668;28;20115;-78
2023/02/11 02:46:11;;;;;;;84.35;55.13;;;;;;;-11.50;100.00;103162.56;5035976;28;20061;-78
2023/02/11 02:48:39;;;;;;;80.43;55.80;;;;;;;-11.48;100.00;103168.53;5027772;28;20506;-78
2023/02/11 02:51:18;;;;;;;83.60;58.47;;;;;;;-11.34;100.00;103157.38;5027477;28;20103;-78
2023/02/11 02:53:58;;;;;;;79.88;57.67;;;;;;;-11.44;100.00;103154.84;5037240;28;20095;-78
2023/02/11 02:56:35;;;;;;;87.78;59.03;;;;;;;-11.44;100.00;103153.13;5027640;28;20049;-78
2023/02/11 02:59:18;;;;;;;128.40;69.53;;;;;;;-11.15;100.00;103153.03;5033230;28;20173;-78
2023/02/11 03:01:54;;;;;;;141.93;82.40;;;;;;;-11.20;100.00;103143.63;5031824;28;20046;-78
2023/02/11 03:04:29;;;;;;;171.30;103.18;;;;;;;-11.05;100.00;103143.56;5028093;28;20049;-78
2023/02/11 03:07:05;;;;;;;173.15;98.80;;;;;;;-10.99;100.00;103150.38;5030076;28;20045;-78
2023/02/11 03:09:38;;;;;;;165.77;89.80;;;;;;;-10.70;100.00;103151.06;5031112;28;20108;-78
2023/02/11 03:12:07;;;;;;;161.25;88.22;;;;;;;-10.70;100.00;103142.50;5031412;28;20104;-79
2023/02/11 03:14:36;;;;;;;171.38;91.57;;;;;;;-10.78;100.00;103141.69;5030560;28;20475;-78
2023/02/11 03:17:06;;;;;;;152.82;82.38;;;;;;;-10.70;100.00;103140.78;5034070;28;20049;-78
2023/02/11 03:19:37;;;;;;;151.45;75.05;;;;;;;-10.44;100.00;103137.19;5032641;28;20054;-78
2023/02/11 03:22:08;;;;;;;147.02;76.00;;;;;;;-10.51;100.00;103136.38;5037628;28;20475;-78
2023/02/11 03:24:38;;;;;;;151.15;79.50;;;;;;;-10.45;100.00;103131.19;5036134;28;20047;-78
2023/02/11 03:27:12;;;;;;;147.48;73.78;;;;;;;-10.47;100.00;103122.66;5035262;28;20104;-78
2023/02/11 03:29:43;;;;;;;124.32;70.50;;;;;;;-10.37;100.00;103131.16;5035274;28;20486;-78
2023/02/11 03:32:15;;;;;;;122.27;67.30;;;;;;;-10.41;100.00;103134.56;5034190;28;20046;-78
2023/02/11 03:34:49;;;;;;;112.10;62.78;;;;;;;-10.32;100.00;103134.50;5036968;28;20073;-78
2023/02/11 03:37:19;;;;;;;117.65;72.10;;;;;;;-10.26;100.00;103129.28;5034202;28;20049;-78
2023/02/11 03:39:51;;;;;;;124.05;74.63;;;;;;;-10.12;100.00;103126.59;5036674;28;20087;-78
2023/02/11 03:42:19;;;;;;;113.00;74.07;;;;;;;-10.21;100.00;103129.25;5033024;28;20549;-79
2023/02/11 03:44:51;;;;;;;109.30;65.93;;;;;;;-10.55;100.00;103121.84;5033943;28;20053;-78
2023/02/11 03:47:22;;;;;;;103.55;65.65;;;;;;;-10.82;100.00;103122.03;5029667;28;20112;-78
2023/02/11 03:49:55;;;;;;;133.02;73.97;;;;;;;-11.03;100.00;103116.16;5034627;28;20045;-78
2023/02/11 03:52:24;;;;;;;134.50;81.93;;;;;;;-11.08;100.00;103116.19;5030835;28;20058;-78
2023/02/11 03:54:55;;;;;;;134.00;80.30;;;;;;;-11.08;100.00;103123.88;5032082;28;20495;-78
2023/02/11 03:57:22;;;;;;;138.35;84.43;;;;;;;-11.09;100.00;103111.91;5033578;28;20046;-78
2023/02/11 03:59:56;;;;;;;127.80;78.55;;;;;;;-11.25;100.00;103106.84;5031126;28;20100;-78
2023/02/11 04:02:27;;;;;;;120.45;74.38;;;;;;;-11.18;100.00;103109.41;5038823;28;20064;-78
2023/02/11 04:04:55;;;;;;;122.10;75.93;;;;;;;-11.28;100.00;103112.88;5032841;28;20054;-78
2023/02/11 04:07:22;;;;;;;117.95;74.95;;;;;;;-10.97;100.00;103116.13;5027491;28;20116;-78
2023/02/11 04:09:49;;;;;;;117.93;77.00;;;;;;;-10.67;100.00;103112.53;5038708;28;20103;-78
2023/02/11 04:12:15;;;;;;;107.47;72.93;;;;;;;-10.91;100.00;103108.41;5029074;28;20046;-78
2023/02/11 04:14:42;;;;;;;112.03;72.90;;;;;;;-10.81;100.00;103109.19;5035173;28;20041;-78
2023/02/11 04:17:09;;;;;;;104.97;69.47;;;;;;;-10.97;100.00;103102.44;5036856;28;20053;-78
2023/02/11 04:19:36;;;;;;;98.05;66.78;;;;;;;-10.71;100.00;103100.56;5037489;28;20099;-78
2023/02/11 04:22:04;;;;;;;98.65;72.07;;;;;;;-10.66;100.00;103103.94;5031832;28;20107;-78
2023/02/11 04:24:31;;;;;;;98.82;70.70;;;;;;;-10.60;100.00;103105.63;5031670;28;20046;-78
2023/02/11 04:26:58;;;;;;;104.63;71.90;;;;;;;-10.85;100.00;103094.66;5033503;28;20108;-78
2023/02/11 04:29:24;;;;;;;106.90;71.18;;;;;;;-10.65;100.00;103097.09;5031604;28;20078;-78
2023/02/11 04:31:51;;;;;;;95.25;66.03;;;;;;;-10.47;100.00;103106.38;5033163;28;20045;-78
2023/02/11 04:34:18;;;;;;;97.93;65.72;;;;;;;-10.40;100.00;103102.91;5032986;28;20041;-78
2023/02/11 04:36:45;;;;;;;95.30;61.75;;;;;;;-10.36;100.00;103107.13;5035237;28;20497;-78
2023/02/11 04:39:13;;;;;;;97.32;61.65;;;;;;;-10.91;100.00;103098.13;5031376;28;20056;-78
2023/02/11 04:41:40;;;;;;;107.97;67.13;;;;;;;-10.75;100.00;103100.59;5034423;28;20045;-78
2023/02/11 04:44:07;;;;;;;108.38;67.40;;;;;;;-10.80;100.00;103099.75;5031708;28;20478;-78
2023/02/11 04:46:34;;;;;;;119.65;74.47;;;;;;;-11.06;100.00;103108.50;5031312;28;20530;-78
2023/02/11 04:49:01;;;;;;;136.02;77.90;;;;;;;-11.26;100.00;103100.88;5033660;28;20089;-78
2023/02/11 04:51:29;;;;;;;149.25;77.38;;;;;;;-11.20;100.00;103095.72;5029987;28;20678;-78
2023/02/11 04:53:55;;;;;;;136.25;81.78;;;;;;;-10.82;100.00;103089.50;5028401;28;20073;-78
2023/02/11 04:56:23;;;;;;;127.47;77.95;;;;;;;-10.72;100.00;103095.44;5036349;28;20580;-78
2023/02/11 04:58:50;;;;;;;102.95;65.85;;;;;;;-10.91;100.00;103094.72;5030801;28;20111;-78
2023/02/11 05:01:17;;;;;;;100.68;63.75;;;;;;;-10.92;100.00;103092.97;5033038;28;20042;-78
2023/02/11 05:03:44;;;;;;;85.80;58.80;;;;;;;-10.57;100.00;103092.75;5036023;28;20048;-78
2023/02/11 05:06:11;;;;;;;98.78;63.25;;;;;;;-10.58;100.00;103087.63;5033803;28;20107;-78
2023/02/11 05:08:38;;;;;;;101.43;64.25;;;;;;;-10.43;100.00;103098.63;5031228;28;20041;-78
2023/02/11 05:11:05;;;;;;;109.78;68.63;;;;;;;-10.54;100.00;103102.16;5030256;28;20049;-78
2023/02/11 05:13:33;;;;;;;137.38;82.50;;;;;;;-10.56;100.00;103102.16;5030178;28;20477;-78
2023/02/11 05:16:01;;;;;;;118.78;63.82;;;;;;;-10.57;100.00;103104.75;4328888;28;10021857;-79
2023/02/11 05:18:28;;;;;;;90.68;58.50;;;;;;;-10.43;100.00;103108.06;4960091;28;20141;-79
2023/02/11 05:20:54;;;;;;;88.00;51.92;;;;;;;-10.52;100.00;103105.56;4967152;28;20047;-78
2023/02/11 05:23:21;;;;;;;78.65;48.30;;;;;;;-10.49;100.00;103115.81;4973564;28;20070;-79
2023/02/11 05:25:48;;;;;;;84.40;52.97;;;;;;;-10.62;100.00;103112.47;4972253;28;20579;-79
2023/02/11 05:28:15;;;;;;;90.97;54.75;;;;;;;-10.58;100.00;103114.16;4973186;28;20046;-78
2023/02/11 05:30:43;;;;;;;82.50;54.65;;;;;;;-10.92;100.00;103116.09;4970412;28;20098;-79
2023/02/11 05:33:10;;;;;;;75.78;48.55;;;;;;;-11.16;100.00;103109.41;4917285;28;20051;-78
2023/02/11 05:35:36;;;;;;;79.45;50.53;;;;;;;-10.92;100.00;103101.56;4950104;29;20051;-78
2023/02/11 05:38:03;;;;;;;86.28;49.90;;;;;;;-10.92;100.00;103103.25;4952714;28;20055;-78
2023/02/11 05:40:30;;;;;;;81.15;49.25;;;;;;;-11.03;100.00;103116.16;4947762;28;20153;-78
2023/02/11 05:42:56;;;;;;;81.03;51.65;;;;;;;-11.13;100.00;103117.94;4950805;28;20517;-78
2023/02/11 05:45:23;;;;;;;83.80;52.95;;;;;;;-10.94;100.00;103117.84;4955705;29;20130;-78
2023/02/11 05:47:51;;;;;;;106.50;57.28;;;;;;;-10.98;100.00;103123.81;4964106;28;20188;-78
2023/02/11 05:50:18;;;;;;;103.60;61.90;;;;;;;-10.89;100.00;103116.06;5004419;28;20054;-79
2023/02/11 05:52:45;;;;;;;122.35;70.05;;;;;;;-10.71;100.00;103133.97;5007530;28;20050;-78
2023/02/11 05:55:12;;;;;;;109.40;64.00;;;;;;;-10.46;100.00;103133.78;5014273;28;20037;-78
2023/02/11 05:57:38;;;;;;;104.13;62.03;;;;;;;-10.27;100.00;103132.75;5007104;28;20069;-78
2023/02/11 06:00:06;;;;;;;102.60;60.58;;;;;;;-9.87;100.00;103137.50;5023703;28;20080;-78
2023/02/11 06:02:33;;;;;;;103.75;59.35;;;;;;;-9.57;100.00;103135.47;5030513;28;20061;-78
2023/02/11 06:05:01;;;;;;;93.43;56.65;;;;;;;-9.31;100.00;103145.47;5023987;28;20128;-78
2023/02/11 06:07:28;;;;;;;111.50;63.47;;;;;;;-9.41;100.00;103146.44;5026927;28;21417;-78
2023/02/11 06:09:55;;;;;;;129.55;75.13;;;;;;;-9.35;100.00;103147.22;5032896;28;20305;-79
2023/02/11 06:12:22;;;;;;;104.88;66.10;;;;;;;-9.51;100.00;103143.97;5028198;28;20050;-78
2023/02/11 06:14:48;;;;;;;127.88;74.85;;;;;;;-9.39;100.00;103152.44;5023257;28;20053;-78
2023/02/11 06:17:15;;;;;;;178.93;104.18;;;;;;;-9.30;100.00;103147.19;5028913;28;20054;-78
2023/02/11 06:19:42;;;;;;;145.23;80.32;;;;;;;-8.86;100.00;103159.50;5026760;28;20085;-78
2023/02/11 06:22:10;;;;;;;91.75;59.67;;;;;;;-9.18;100.00;103151.31;5023013;28;20054;-79
2023/02/11 06:24:37;;;;;;;93.72;57.65;;;;;;;-8.78;100.00;103157.63;5030553;28;20136;-78
2023/02/11 06:27:05;;;;;;;83.28;53.63;;;;;;;-8.74;100.00;103152.44;5030583;28;20478;-78
2023/02/11 06:29:31;;;;;;;79.65;52.35;;;;;;;-8.22;100.00;103160.22;5027022;28;20111;-78
2023/02/11 06:31:58;;;;;;;74.90;50.30;;;;;;;-7.61;100.00;103164.28;5022535;28;20530;-79
2023/02/11 06:34:25;;;;;;;79.15;50.75;;;;;;;-7.58;100.00;103159.97;5024250;28;20049;-78
2023/02/11 06:36:51;;;;;;;81.70;51.13;;;;;;;-7.56;100.00;103156.47;5023343;28;20476;-79
2023/02/11 06:39:19;;;;;;;81.10;51.72;;;;;;;-7.05;100.00;103155.44;5029842;28;20045;-79
2023/02/11 06:41:46;;;;;;;81.80;50.70;;;;;;;-6.94;100.00;103149.16;5031058;28;20042;-78
2023/02/11 06:44:13;;;;;;;70.60;46.88;;;;;;;-6.79;100.00;103150.56;5026347;28;20108;-79
2023/02/11 06:46:39;;;;;;;69.28;49.20;;;;;;;-7.24;100.00;103136.91;5027838;28;20046;-79
2023/02/11 06:49:06;;;;;;;74.78;49.60;;;;;;;-6.61;100.00;103143.28;5021439;28;20096;-79
2023/02/11 06:51:33;;;;;;;76.47;48.10;;;;;;;-6.09;100.00;103142.00;5022913;28;20510;-79
2023/02/11 06:54:00;;;;;;;71.45;47.15;;;;;;;-5.56;100.00;103131.94;5025259;28;20042;-79
2023/02/11 06:56:29;;;;;;;67.07;44.90;;;;;;;-5.20;100.00;103127.47;5025986;28;20042;-79
2023/02/11 06:58:56;;;;;;;59.80;41.40;;;;;;;-5.39;100.00;103129.72;5025942;28;20170;-78
2023/02/11 07:01:24;;;;;;;66.93;44.53;;;;;;;-5.39;100.00;103131.47;5029590;28;20116;-79
2023/02/11 07:03:51;;;;;;;61.60;42.50;;;;;;;-4.94;100.00;103134.44;5025742;28;20042;-79
2023/02/11 07:06:20;;;;;;;49.60;36.20;;;;;;;-4.80;100.00;103131.44;5028985;28;20111;-79
2023/02/11 07:08:47;;;;;;;59.80;39.47;;;;;;;-4.38;100.00;103139.63;5032203;28;20038;-78
2023/02/11 07:11:17;;;;;;;67.28;44.63;;;;;;;-4.87;100.00;103130.78;5030253;28;20121;-78
2023/02/11 07:13:46;;;;;;;53.35;40.80;;;;;;;-4.13;100.00;103125.00;5031101;28;20046;-78
2023/02/11 07:16:15;;;;;;;62.38;44.05;;;;;;;-4.01;100.00;103121.97;5025125;28;20042;-79
2023/02/11 07:18:42;;;;;;;64.68;43.95;;;;;;;-3.15;100.00;103124.91;5027439;28;20046;-78
2023/02/11 07:21:11;;;;;;;55.20;39.97;;;;;;;-3.23;100.00;103122.63;5020906;28;20112;-78
2023/02/11 07:23:38;;;;;;;49.92;37.42;;;;;;;-2.72;100.00;103125.88;5024323;28;20103;-78
2023/02/11 07:26:06;;;;;;;41.92;35.50;;;;;;;-2.68;100.00;103119.63;5023494;28;20041;-78
2023/02/11 07:28:35;;;;;;;48.25;36.67;;;;;;;-2.66;100.00;103123.03;5027362;28;20049;-78
2023/02/11 07:31:08;;;;;;;49.67;35.85;;;;;;;-2.53;100.00;103124.22;5025470;28;20083;-78
2023/02/11 07:33:35;;;;;;;50.53;34.72;;;;;;;-2.72;100.00;103119.81;5023494;28;20136;-78
2023/02/11 07:36:02;;;;;;;47.83;36.25;;;;;;;-1.12;100.00;103113.81;5021376;28;20137;-78
2023/02/11 07:38:29;;;;;;;50.05;35.60;;;;;;;-0.64;100.00;103118.47;5020259;28;20081;-79
2023/02/11 07:40:59;;;;;;;47.17;35.60;;;;;;;-1.33;100.00;103106.06;5022467;28;20745;-79
2023/02/11 07:43:26;;;;;;;44.03;34.80;;;;;;;-0.66;100.00;103107.28;5023352;28;20068;-78
2023/02/11 07:45:53;;;;;;;70.85;38.35;;;;;;;-0.99;100.00;103102.75;5023640;28;20046;-79
2023/02/11 07:48:21;;;;;;;51.97;38.15;;;;;;;-0.26;100.00;103100.91;5021564;28;20041;-78
2023/02/11 07:50:48;;;;;;;40.35;33.90;;;;;;;-0.40;100.00;103092.91;5022274;28;20459;-79
2023/02/11 07:53:14;;;;;;;45.42;35.70;;;;;;;0.18;100.00;103091.72;5020626;28;20578;-78
2023/02/11 07:55:43;;;;;;;46.15;36.45;;;;;;;0.75;100.00;103088.69;5022316;28;20103;-79
2023/02/11 07:58:10;;;;;;;51.20;38.58;;;;;;;0.72;100.00;103084.47;5019452;28;20050;-78
2023/02/11 08:00:36;;;;;;;46.65;36.00;;;;;;;1.02;100.00;103081.09;5023146;28;20074;-79
2023/02/11 08:03:04;;;;;;;48.30;35.47;;;;;;;1.19;100.00;103082.78;5028345;28;20045;-78
2023/02/11 08:05:32;;;;;;;54.67;37.78;;;;;;;0.75;100.00;103076.47;5022472;28;20053;-78
2023/02/11 08:07:58;;;;;;;45.85;36.20;;;;;;;1.78;100.00;103075.84;5022581;28;20557;-78
2023/02/11 08:10:25;;;;;;;43.58;34.95;;;;;;;1.98;100.00;103066.81;5024189;28;20115;-78
2023/02/11 08:12:52;;;;;;;47.85;36.30;;;;;;;2.73;100.00;103070.88;5026443;28;20104;-78
2023/02/11 08:15:19;;;;;;;52.38;39.13;;;;;;;2.87;100.00;103061.28;5026037;28;20427;-78
2023/02/11 08:17:46;;;;;;;70.40;42.78;;;;;;;1.90;100.00;103058.53;5024695;28;20064;-78
2023/02/11 08:20:13;;;;;;;60.70;38.80;;;;;;;2.10;100.00;103054.72;5024219;28;20045;-78
2023/02/11 08:22:41;;;;;;;52.65;38.00;;;;;;;3.35;100.00;103048.53;5030937;28;20038;-78
2023/02/11 08:25:08;;;;;;;51.72;38.50;;;;;;;1.27;100.00;103054.38;5021083;28;20042;-78
2023/02/11 08:27:34;;;;;;;55.33;40.90;;;;;;;3.61;100.00;103050.25;4945027;28;20050;-79
2023/02/11 08:30:01;;;;;;;42.35;34.63;;;;;;;2.72;100.00;103056.09;5010333;28;20049;-78
2023/02/11 08:32:28;;;;;;;46.13;36.08;;;;;;;1.09;100.00;103058.88;5018261;28;20080;-78
2023/02/11 08:34:55;;;;;;;43.55;36.55;;;;;;;0.00;100.00;103041.28;5019861;28;20060;-78
2023/02/11 08:37:21;;;;;;;46.25;34.88;;;;;;;2.82;100.00;103048.47;5020625;28;20042;-78
2023/02/11 08:39:50;;;;;;;47.70;35.83;;;;;;;1.41;100.00;103048.34;5022375;28;20091;-78
2023/02/11 08:42:16;;;;;;;44.65;33.15;;;;;;;1.34;100.00;103053.94;4988726;28;20050;-78
2023/02/11 08:44:43;;;;;;;45.17;35.13;;;;;;;2.65;100.00;103048.69;5024415;28;20207;-78
2023/02/11 08:47:10;;;;;;;44.67;39.13;;;;;;;2.90;100.00;103054.03;5023122;28;20041;-78
2023/02/11 08:49:37;;;;;;;46.35;36.28;;;;;;;0.18;100.00;103048.16;5022678;28;20050;-79
2023/02/11 08:52:04;;;;;;;49.90;34.88;;;;;;;0.68;100.00;103060.25;4987689;28;20095;-78
2023/02/11 08:54:31;;;;;;;46.38;36.67;;;;;;;-0.58;100.00;103046.84;5023020;28;20119;-78
2023/02/11 08:57:00;;;;;;;48.38;37.70;;;;;;;2.26;100.00;103050.22;5022127;28;20041;-78
2023/02/11 08:59:27;;;;;;;58.05;42.00;;;;;;;1.05;100.00;103052.13;5022275;28;20046;-78
2023/02/11 09:01:54;;;;;;;50.00;39.95;;;;;;;2.51;100.00;103050.41;5026646;28;20049;-78
2023/02/11 09:04:21;;;;;;;40.13;35.92;;;;;;;0.30;100.00;103049.25;5020803;28;20042;-78
2023/02/11 09:06:48;;;;;;;47.80;39.70;;;;;;;1.98;100.00;103054.53;5022127;28;20050;-78
2023/02/11 09:09:15;;;;;;;44.13;36.03;;;;;;;2.31;100.00;103057.81;5025981;28;20127;-78
2023/02/11 09:11:43;;;;;;;47.85;38.80;;;;;;;1.35;100.00;103058.22;5024771;28;20050;-78
2023/02/11 09:14:17;;;;;;;40.65;35.20;;;;;;;0.42;100.00;103053.84;5017512;28;20037;-79
2023/02/11 09:16:44;;;;;;;46.38;36.03;;;;;;;2.03;100.00;103038.53;5021364;28;20045;-79
2023/02/11 09:19:10;;;;;;;42.38;38.03;;;;;;;4.34;100.00;103035.59;5025328;28;20038;-79
2023/02/11 09:21:37;;;;;;;41.88;35.28;;;;;;;2.28;100.00;103035.25;5022678;28;20050;-78
2023/02/11 09:24:05;;;;;;;47.25;39.20;;;;;;;0.02;100.00;103036.81;5023696;28;20157;-78
2023/02/11 09:26:34;;;;;;;47.30;35.03;;;;;;;0.74;100.00;103030.31;5023796;28;20158;-79
2023/02/11 09:29:01;;;;;;;44.70;38.22;;;;;;;2.35;100.00;103022.59;5020572;28;20042;-79
2023/02/11 09:31:31;;;;;;;42.80;36.90;;;;;;;3.36;100.00;103019.53;5019223;28;20541;-79
2023/02/11 09:34:00;;;;;;;47.70;38.30;;;;;;;4.70;100.00;103023.41;5027097;28;20050;-78
2023/02/11 09:36:30;;;;;;;43.83;38.38;;;;;;;5.92;100.00;103008.91;5028274;28;20049;-79
2023/02/11 09:38:59;;;;;;;47.70;37.97;;;;;;;4.95;100.00;103014.56;5030503;28;20109;-79
2023/02/11 09:41:38;;;;;;;48.13;40.58;;;;;;;4.98;90.08;103012.53;5028357;28;20049;-79
2023/02/11 09:44:07;;;;;;;46.78;36.38;;;;;;;3.45;95.05;103004.94;5031768;28;20410;-79
2023/02/11 09:46:41;;;;;;;48.40;39.88;;;;;;;3.03;100.00;102998.13;5031185;28;20115;-78
2023/02/11 09:49:17;;;;;;;46.75;38.33;;;;;;;3.50;100.00;102991.47;5031397;28;20045;-79
2023/02/11 09:51:50;;;;;;;45.15;37.33;;;;;;;4.55;100.00;102988.50;5031506;28;20053;-79
2023/02/11 09:54:23;;;;;;;37.35;31.95;;;;;;;4.47;100.00;102989.03;5028391;28;20049;-79
2023/02/11 09:56:50;;;;;;;38.10;33.65;;;;;;;3.16;100.00;102978.81;5025189;28;20037;-79
2023/02/11 09:59:17;;;;;;;47.08;41.97;;;;;;;2.71;100.00;102982.69;5029418;28;20049;-79
2023/02/11 10:01:50;;;;;;;44.72;36.28;;;;;;;4.67;100.00;102979.72;5028732;28;20053;-79
2023/02/11 10:04:22;;;;;;;;;;;;;;;3.97;100.00;102972.44;5027171;28;20046;-78
2023/02/11 10:06:52;;;;;;;44.90;39.92;;;;;;;2.32;100.00;102965.91;5022662;28;20382;-79
2023/02/11 10:09:32;;;;;;;44.13;39.58;;;;;;;2.41;100.00;102959.25;5024898;28;20091;-78
2023/02/11 10:12:16;;;;;;;40.72;36.78;;;;;;;3.96;100.00;102956.75;5033428;28;20515;-79
2023/02/11 10:15:05;;;;;;;42.92;37.63;;;;;;;2.29;100.00;102953.84;5030067;28;20045;-78
2023/02/11 10:17:45;;;;;;;40.03;35.45;;;;;;;2.81;100.00;102939.13;5029036;28;20053;-79
2023/02/11 10:20:23;;;;;;;41.95;37.28;;;;;;;2.43;100.00;102939.03;5031325;28;20388;-79
2023/02/11 10:22:53;;;;;;;44.50;39.00;;;;;;;2.37;100.00;102923.69;5015058;28;20045;-79
2023/02/11 10:25:23;;;;;;;40.78;36.35;;;;;;;4.38;100.00;102930.97;5026243;28;20041;-79
2023/02/11 10:27:51;;;;;;;41.88;37.60;;;;;;;3.33;100.00;102913.81;5027163;28;20466;-79
2023/02/11 10:30:26;;;;;;;44.92;34.55;;;;;;;3.85;100.00;102918.09;5030482;28;20049;-79
2023/02/11 10:33:00;;;;;;;45.08;35.05;;;;;;;5.60;99.34;102913.00;5035139;28;20570;-78
2023/02/11 10:35:27;;;;;;;37.22;32.83;;;;;;;5.32;99.35;102904.59;5030073;28;20056;-79
2023/02/11 10:37:55;;;;;;;43.90;34.25;;;;;;;3.86;99.91;102902.19;5035393;28;20046;-79
2023/02/11 10:40:24;;;;;;;42.35;36.08;;;;;;;4.80;97.10;102888.31;5036342;28;20499;-79
2023/02/11 10:42:52;;;;;;;41.67;36.20;;;;;;;3.35;100.00;102890.91;5035744;28;20042;-79
2023/02/11 10:45:25;;;;;;;40.60;34.67;;;;;;;5.87;100.00;102892.41;5033930;28;20049;-79
2023/02/11 10:47:54;;;;;;;43.55;36.53;;;;;;;3.03;94.32;102880.81;5029639;28;20116;-79
2023/02/11 10:50:25;;;;;;;46.42;39.30;;;;;;;5.68;100.00;102890.34;5031832;28;20056;-78
2023/02/11 10:52:52;;;;;;;36.35;32.60;;;;;;;5.42;100.00;102881.88;5033749;28;20049;-79
2023/02/11 10:55:20;;;;;;;40.13;32.72;;;;;;;4.03;100.00;102874.72;5038362;28;20050;-78
2023/02/11 10:57:54;;;;;;;38.28;31.73;;;;;;;5.10;94.14;102865.91;5034693;28;20562;-79
2023/02/11 11:00:36;;;;;;;38.88;32.13;;;;;;;4.75;100.00;102858.88;5035278;28;20080;-79
2023/02/11 11:03:06;;;;;;;41.65;37.15;;;;;;;7.39;88.01;102861.34;5035842;28;20088;-79
2023/02/11 11:05:37;;;;;;;38.10;33.13;;;;;;;4.03;100.00;102864.19;5033104;28;20592;-78
2023/02/11 11:08:06;;;;;;;40.20;35.90;;;;;;;5.08;100.00;102859.91;5032446;28;21668;-79
2023/02/11 11:10:43;;;;;;;41.97;37.55;;;;;;;4.36;100.00;102854.78;5034591;28;20080;-78
2023/02/11 11:13:30;;;;;;;42.22;37.92;;;;;;;7.17;87.94;102851.78;5036241;28;20084;-79